createdAt,value
2023-11-08T00:00:33.753Z,97.00
2023-11-08T00:03:02.159Z,96.80
2023-11-08T00:05:30.219Z,96.90
2023-11-08T00:07:57.633Z,97.00
2023-11-08T00:10:25.023Z,96.90
2023-11-08T00:12:52.534Z,96.90
2023-11-08T00:15:19.974Z,96.60
2023-11-08T00:17:47.636Z,96.50
2023-11-08T00:20:14.958Z,96.40
2023-11-08T00:22:45.863Z,96.30
2023-11-08T00:25:13.717Z,96.10
2023-11-08T00:27:41.253Z,95.90
2023-11-08T00:30:09.542Z,95.80
2023-11-08T00:32:37.055Z,95.60
2023-11-08T00:35:04.757Z,95.70
2023-11-08T00:37:32.404Z,95.70
2023-11-08T00:39:59.787Z,95.70
2023-11-08T00:42:27.277Z,95.60
2023-11-08T00:44:54.629Z,95.50
2023-11-08T00:47:21.991Z,95.50
2023-11-08T00:49:49.932Z,95.60
2023-11-08T00:52:17.549Z,95.70
2023-11-08T00:54:45.647Z,95.60
2023-11-08T00:57:14.144Z,95.50
2023-11-08T00:59:43.029Z,95.50
2023-11-08T01:02:10.396Z,95.50
2023-11-08T01:04:38.005Z,95.50
2023-11-08T01:07:06.226Z,95.50
2023-11-08T01:09:33.571Z,95.40
2023-11-08T01:12:00.921Z,95.50
2023-11-08T01:14:28.567Z,95.40
2023-11-08T01:16:56.087Z,95.50
2023-11-08T01:19:26.260Z,95.30
2023-11-08T01:21:54.232Z,95.30
2023-11-08T01:24:23.807Z,95.30
2023-11-08T01:26:51.150Z,95.40
2023-11-08T01:29:18.480Z,95.40
2023-11-08T01:31:47.103Z,95.40
2023-11-08T01:34:15.320Z,95.40
2023-11-08T01:36:44.236Z,95.40
2023-11-08T01:39:12.180Z,95.50
2023-11-08T01:41:39.498Z,95.30
2023-11-08T01:44:07.320Z,95.40
2023-11-08T01:46:35.006Z,95.50
2023-11-08T01:49:02.632Z,95.50
2023-11-08T01:51:30.761Z,95.60
2023-11-08T01:53:58.579Z,95.60
2023-11-08T01:56:26.304Z,95.60
2023-11-08T01:58:57.828Z,95.70
2023-11-08T02:01:26.658Z,95.70
2023-11-08T02:03:55.971Z,95.70
2023-11-08T02:06:23.454Z,95.90
2023-11-08T02:08:52.361Z,95.90
2023-11-08T02:11:19.646Z,95.90
2023-11-08T02:13:46.947Z,95.90
2023-11-08T02:16:14.353Z,95.90
2023-11-08T02:18:42.682Z,95.90
2023-11-08T02:21:14.536Z,95.80
2023-11-08T02:23:42.184Z,95.80
2023-11-08T02:26:09.511Z,95.70
2023-11-08T02:28:39.103Z,95.80
2023-11-08T02:31:06.536Z,95.70
2023-11-08T02:33:33.944Z,95.70
2023-11-08T02:36:02.349Z,95.70
2023-11-08T02:38:29.877Z,95.60
2023-11-08T02:40:57.644Z,95.90
2023-11-08T02:43:27.066Z,95.60
2023-11-08T02:45:54.930Z,95.50
2023-11-08T02:48:22.546Z,95.30
2023-11-08T02:50:51.513Z,95.20
2023-11-08T02:53:21.293Z,95.20
2023-11-08T02:55:48.790Z,95.10
2023-11-08T02:58:16.118Z,95.10
2023-11-08T03:00:43.835Z,95.10
2023-11-08T03:03:14.650Z,95.00
2023-11-08T03:05:42.453Z,95.10
2023-11-08T03:08:09.955Z,95.10
2023-11-08T03:10:37.446Z,95.10
2023-11-08T03:13:06.050Z,95.20
2023-11-08T03:15:33.886Z,95.30
2023-11-08T03:18:01.461Z,95.30
2023-11-08T03:20:28.842Z,95.30
2023-11-08T03:22:57.309Z,95.20
2023-11-08T03:25:24.682Z,94.90
2023-11-08T03:27:52.031Z,94.80
2023-11-08T03:30:19.464Z,94.70
2023-11-08T03:32:47.551Z,94.70
2023-11-08T03:35:16.541Z,94.70
2023-11-08T03:37:44.772Z,94.70
2023-11-08T03:40:13.928Z,94.50
2023-11-08T03:42:42.788Z,94.50
2023-11-08T03:45:11.181Z,94.50
2023-11-08T03:47:42.880Z,94.30
2023-11-08T03:50:10.807Z,94.20
2023-11-08T03:52:38.347Z,94.30
2023-11-08T03:55:06.766Z,94.20
2023-11-08T03:57:34.166Z,94.30
2023-11-08T04:00:01.861Z,94.30
2023-11-08T04:02:29.443Z,94.30
2023-11-08T04:04:58.277Z,94.30
2023-11-08T04:07:25.760Z,94.20
2023-11-08T04:09:53.182Z,94.10
2023-11-08T04:12:21.135Z,94.10
2023-11-08T04:14:48.889Z,93.80
2023-11-08T04:17:19.019Z,93.80
2023-11-08T04:19:47.156Z,93.70
2023-11-08T04:22:17.346Z,93.70
2023-11-08T04:24:44.901Z,93.50
2023-11-08T04:27:12.554Z,93.50
2023-11-08T04:29:40.025Z,93.50
2023-11-08T04:32:07.602Z,93.50
2023-11-08T04:34:35.375Z,93.50
2023-11-08T04:37:07.723Z,93.20
2023-11-08T04:39:36.772Z,93.30
2023-11-08T04:42:04.919Z,93.30
2023-11-08T04:44:32.843Z,93.20
2023-11-08T04:47:00.174Z,93.20
2023-11-08T04:49:29.181Z,93.30
2023-11-08T04:51:56.641Z,93.40
2023-11-08T04:54:24.089Z,93.40
2023-11-08T04:56:51.501Z,93.60
2023-11-08T04:59:18.964Z,93.60
2023-11-08T05:01:46.686Z,93.70
2023-11-08T05:04:14.601Z,93.70
2023-11-08T05:06:41.922Z,93.70
2023-11-08T05:09:09.274Z,93.60
2023-11-08T05:11:36.907Z,93.70
2023-11-08T05:14:04.634Z,93.70
2023-11-08T05:16:35.205Z,93.70
2023-11-08T05:19:06.736Z,93.60
2023-11-08T05:21:34.644Z,93.60
2023-11-08T05:24:02.016Z,93.60
2023-11-08T05:26:29.353Z,93.60
2023-11-08T05:28:56.647Z,93.60
2023-11-08T05:31:24.670Z,93.60
2023-11-08T05:33:52.128Z,93.40
2023-11-08T05:36:19.557Z,93.40
2023-11-08T05:38:48.734Z,93.30
2023-11-08T05:41:20.434Z,93.20
2023-11-08T05:43:47.817Z,93.00
2023-11-08T05:46:15.141Z,93.10
2023-11-08T05:48:42.608Z,93.00
2023-11-08T05:51:10.218Z,92.90
2023-11-08T05:53:38.735Z,92.90
2023-11-08T05:56:07.654Z,93.00
2023-11-08T05:58:36.858Z,93.00
2023-11-08T06:01:05.994Z,93.10
2023-11-08T06:03:33.931Z,93.10
2023-11-08T06:06:01.442Z,93.10
2023-11-08T06:08:28.745Z,93.00
2023-11-08T06:10:56.085Z,93.00
2023-11-08T06:13:23.768Z,93.00
2023-11-08T06:15:51.301Z,93.00
2023-11-08T06:18:21.900Z,93.00
2023-11-08T06:20:49.478Z,93.00
2023-11-08T06:23:16.754Z,93.00
2023-11-08T06:25:45.127Z,93.00
2023-11-08T06:28:12.984Z,93.00
2023-11-08T06:30:40.526Z,93.00
2023-11-08T06:33:08.966Z,93.00
2023-11-08T06:35:38.427Z,92.90
2023-11-08T06:38:05.960Z,92.90
2023-11-08T06:40:33.262Z,92.90
2023-11-08T06:43:00.607Z,92.60
2023-11-08T06:45:27.901Z,92.60
2023-11-08T06:47:55.601Z,92.60
2023-11-08T06:50:23.012Z,92.60
2023-11-08T06:52:50.304Z,92.60
2023-11-08T06:55:23.236Z,92.60
2023-11-08T06:58:02.772Z,92.70
2023-11-08T07:00:30.602Z,92.50
2023-11-08T07:02:58.073Z,92.50
2023-11-08T07:05:30.395Z,92.50
2023-11-08T07:08:04.376Z,92.30
2023-11-08T07:10:31.809Z,92.30
2023-11-08T07:12:59.979Z,92.20
2023-11-08T07:15:28.801Z,92.20
2023-11-08T07:17:56.389Z,92.20
2023-11-08T07:20:24.318Z,92.00
2023-11-08T07:22:51.662Z,91.90
2023-11-08T07:25:19.213Z,91.70
2023-11-08T07:27:46.774Z,91.70
2023-11-08T07:30:16.089Z,91.60
2023-11-08T07:32:47.383Z,91.40
2023-11-08T07:35:15.230Z,91.30
2023-11-08T07:37:42.512Z,91.10
2023-11-08T07:40:13.673Z,91.00
2023-11-08T07:42:42.274Z,90.90
2023-11-08T07:45:10.476Z,90.80
2023-11-08T07:47:37.957Z,90.70
2023-11-08T07:50:07.719Z,90.80
2023-11-08T07:52:35.255Z,90.40
2023-11-08T07:55:02.745Z,90.40
2023-11-08T07:57:30.196Z,90.00
2023-11-08T07:59:57.545Z,89.00
2023-11-08T08:02:25.018Z,88.30
2023-11-08T08:04:53.236Z,88.10
2023-11-08T08:07:20.612Z,87.90
2023-11-08T08:09:47.903Z,87.50
2023-11-08T08:12:15.213Z,86.70
2023-11-08T08:14:42.527Z,86.30
2023-11-08T08:17:09.861Z,86.00
2023-11-08T08:19:37.385Z,85.20
2023-11-08T08:22:05.729Z,84.40
2023-11-08T08:24:33.530Z,83.60
2023-11-08T08:27:00.929Z,83.00
2023-11-08T08:29:29.427Z,83.40
2023-11-08T08:31:56.800Z,83.10
2023-11-08T08:34:28.995Z,83.00
2023-11-08T08:36:59.225Z,81.70
2023-11-08T08:39:29.296Z,81.40
2023-11-08T08:41:57.901Z,81.20
2023-11-08T08:44:25.922Z,81.80
2023-11-08T08:46:53.433Z,81.50
2023-11-08T08:49:22.863Z,81.90
2023-11-08T08:51:51.039Z,81.30
2023-11-08T08:54:22.251Z,80.90
2023-11-08T08:56:50.209Z,81.70
2023-11-08T08:59:17.923Z,80.80
2023-11-08T09:01:45.921Z,80.30
2023-11-08T09:04:13.763Z,80.20
2023-11-08T09:06:41.224Z,80.40
2023-11-08T09:09:14.441Z,79.70
2023-11-08T09:11:42.001Z,79.90
2023-11-08T09:14:10.069Z,78.50
2023-11-08T09:16:39.987Z,78.70
2023-11-08T09:19:11.666Z,78.30
2023-11-08T09:21:39.451Z,77.80
2023-11-08T09:24:08.209Z,78.00
2023-11-08T09:26:36.842Z,76.70
2023-11-08T09:29:04.422Z,76.60
2023-11-08T09:31:31.932Z,76.40
2023-11-08T09:34:01.359Z,75.90
2023-11-08T09:36:29.932Z,76.20
2023-11-08T09:39:00.058Z,76.60
2023-11-08T09:41:28.905Z,75.50
2023-11-08T09:43:57.089Z,72.70
2023-11-08T09:46:27.574Z,72.60
2023-11-08T09:48:57.509Z,72.10
2023-11-08T09:51:25.342Z,71.00
2023-11-08T09:53:53.726Z,70.50
2023-11-08T09:56:23.078Z,70.60
2023-11-08T09:58:51.730Z,69.80
2023-11-08T10:01:19.484Z,68.60
2023-11-08T10:03:47.822Z,68.10
2023-11-08T10:06:18.532Z,68.30
2023-11-08T10:08:48.071Z,67.10
2023-11-08T10:11:18.391Z,68.10
2023-11-08T10:13:54.291Z,67.40
2023-11-08T10:16:24.800Z,67.30
2023-11-08T10:19:36.141Z,66.90
2023-11-08T10:21:52.373Z,67.90
2023-11-08T10:24:19.876Z,68.80
2023-11-08T10:26:47.932Z,66.70
2023-11-08T10:29:15.478Z,66.70
2023-11-08T10:31:43.951Z,65.90
2023-11-08T10:34:13.784Z,65.70
2023-11-08T10:36:43.889Z,67.10
2023-11-08T10:39:31.517Z,66.80
2023-11-08T10:41:58.910Z,67.00
2023-11-08T10:44:31.094Z,66.20
2023-11-08T10:46:59.479Z,67.30
2023-11-08T10:49:27.563Z,66.80
2023-11-08T10:51:55.261Z,66.00
2023-11-08T10:54:22.858Z,66.30
2023-11-08T10:56:53.843Z,66.40
2023-11-08T10:59:22.674Z,64.90
2023-11-08T11:01:50.359Z,65.20
2023-11-08T11:04:21.141Z,65.20
2023-11-08T11:06:49.815Z,65.80
2023-11-08T11:09:18.297Z,65.10
2023-11-08T11:11:54.470Z,65.10
2023-11-08T11:14:48.751Z,66.60
2023-11-08T11:17:24.067Z,66.10
2023-11-08T11:19:54.538Z,65.80
2023-11-08T11:22:23.268Z,66.70
2023-11-08T11:24:50.625Z,67.40
2023-11-08T11:27:40.232Z,67.30
2023-11-08T11:30:22.675Z,65.70
2023-11-08T11:32:54.865Z,65.80
2023-11-08T11:35:31.054Z,66.00
2023-11-08T11:38:07.585Z,65.50
2023-11-08T11:40:39.389Z,66.20
2023-11-08T11:43:45.918Z,66.20
2023-11-08T11:46:20.895Z,66.10
2023-11-08T11:49:02.633Z,66.00
2023-11-08T11:51:30.287Z,66.70
2023-11-08T11:53:57.859Z,66.00
2023-11-08T11:56:25.347Z,65.80
2023-11-08T11:58:52.681Z,65.30
2023-11-08T12:01:23.068Z,65.80
2023-11-08T12:03:52.447Z,65.30
2023-11-08T12:06:20.668Z,64.80
2023-11-08T12:08:48.007Z,64.80
2023-11-08T12:11:16.984Z,64.70
2023-11-08T12:13:52.280Z,64.50
2023-11-08T12:16:20.866Z,64.10
2023-11-08T12:18:50.673Z,64.80
2023-11-08T12:21:19.679Z,64.60
2023-11-08T12:23:50.802Z,64.50
2023-11-08T12:26:21.127Z,63.20
2023-11-08T12:28:50.265Z,62.80
2023-11-08T12:31:29.143Z,63.00
2023-11-08T12:33:59.554Z,61.90
2023-11-08T12:36:27.119Z,60.30
2023-11-08T12:38:54.613Z,60.70
2023-11-08T12:41:22.026Z,60.90
2023-11-08T12:44:05.155Z,59.90
2023-11-08T12:46:41.098Z,59.40
2023-11-08T12:49:16.370Z,60.20
2023-11-08T12:51:44.965Z,60.20
2023-11-08T12:54:16.379Z,59.00
2023-11-08T12:56:44.722Z,59.60
2023-11-08T12:59:13.011Z,60.00
2023-11-08T13:01:40.406Z,59.60
2023-11-08T13:04:08.647Z,59.50
2023-11-08T13:06:36.192Z,59.60
2023-11-08T13:09:04.434Z,58.70
2023-11-08T13:11:35.175Z,58.60
2023-11-08T13:14:06.369Z,58.30
2023-11-08T13:16:34.462Z,57.90
2023-11-08T13:19:02.717Z,57.90
2023-11-08T13:21:30.311Z,58.20
2023-11-08T13:24:03.281Z,58.50
2023-11-08T13:26:35.420Z,59.10
2023-11-08T13:29:04.036Z,59.30
2023-11-08T13:31:31.540Z,59.90
2023-11-08T13:33:59.332Z,59.80
2023-11-08T13:36:28.728Z,60.10
2023-11-08T13:38:57.697Z,60.10
2023-11-08T13:41:26.259Z,60.80
2023-11-08T13:43:53.668Z,60.40
2023-11-08T13:46:22.804Z,60.10
2023-11-08T13:48:50.458Z,60.70
2023-11-08T13:51:18.052Z,59.10
2023-11-08T13:53:45.642Z,59.70
2023-11-08T13:56:13.368Z,59.40
2023-11-08T13:58:40.824Z,60.00
2023-11-08T14:01:11.798Z,60.40
2023-11-08T14:03:40.415Z,60.70
2023-11-08T14:06:09.509Z,60.10
2023-11-08T14:08:38.494Z,59.40
2023-11-08T14:11:06.318Z,60.10
2023-11-08T14:13:33.808Z,60.60
2023-11-08T14:16:01.321Z,59.70
2023-11-08T14:18:28.753Z,59.80
2023-11-08T14:20:57.793Z,59.80
2023-11-08T14:23:25.456Z,59.70
2023-11-08T14:25:52.783Z,60.00
2023-11-08T14:28:20.628Z,60.00
2023-11-08T14:30:48.473Z,59.40
2023-11-08T14:33:17.759Z,58.90
2023-11-08T14:35:45.437Z,58.80
2023-11-08T14:38:13.221Z,58.50
2023-11-08T14:40:41.377Z,58.80
2023-11-08T14:43:08.997Z,58.60
2023-11-08T14:45:36.735Z,58.90
2023-11-08T14:48:05.169Z,59.00
2023-11-08T14:50:32.546Z,59.40
2023-11-08T14:53:00.099Z,59.40
2023-11-08T14:55:27.393Z,59.70
2023-11-08T14:57:54.804Z,60.10
2023-11-08T15:00:24.573Z,60.30
2023-11-08T15:02:53.604Z,60.60
2023-11-08T15:05:21.391Z,60.90
2023-11-08T15:09:47.278Z,61.30
2023-11-08T15:10:38.559Z,61.60
2023-11-08T15:13:06.229Z,61.70
2023-11-08T15:15:34.392Z,62.10
2023-11-08T15:18:01.813Z,62.40
2023-11-08T15:20:29.177Z,62.70
2023-11-08T15:22:58.157Z,62.70
2023-11-08T15:25:25.694Z,63.10
2023-11-08T15:27:54.314Z,63.40
2023-11-08T15:30:22.911Z,63.90
2023-11-08T15:32:50.607Z,64.20
2023-11-08T15:35:18.118Z,64.40
2023-11-08T15:37:45.486Z,64.80
2023-11-08T15:40:14.471Z,65.30
2023-11-08T15:42:42.229Z,65.40
2023-11-08T15:45:10.673Z,65.80
2023-11-08T15:47:38.468Z,66.00
2023-11-08T15:50:06.497Z,66.10
2023-11-08T15:52:33.981Z,66.30
2023-11-08T15:55:01.563Z,66.60
2023-11-08T15:57:29.309Z,66.70
2023-11-08T15:59:57.563Z,66.90
2023-11-08T16:02:24.892Z,67.20
2023-11-08T16:04:52.536Z,67.40
2023-11-08T16:07:20.165Z,67.60
2023-11-08T16:09:47.525Z,67.90
2023-11-08T16:12:14.966Z,68.20
2023-11-08T16:14:42.664Z,68.50
2023-11-08T16:17:10.054Z,68.70
2023-11-08T16:19:37.737Z,68.70
2023-11-08T16:22:05.254Z,68.90
2023-11-08T16:24:32.603Z,69.00
2023-11-08T16:27:00.069Z,69.10
2023-11-08T16:29:50.816Z,69.00
2023-11-08T16:32:35.045Z,69.10
2023-11-08T16:35:02.773Z,69.20
2023-11-08T16:37:30.523Z,69.40
2023-11-08T16:39:58.289Z,69.60
2023-11-08T16:42:25.825Z,69.80
2023-11-08T16:44:53.205Z,69.90
2023-11-08T16:47:20.689Z,70.10
2023-11-08T16:49:51.938Z,70.20
2023-11-08T16:52:20.346Z,70.50
2023-11-08T16:54:47.612Z,70.80
2023-11-08T16:57:15.238Z,71.20
2023-11-08T16:59:42.911Z,71.60
2023-11-08T17:02:10.383Z,71.90
2023-11-08T17:04:47.178Z,72.30
2023-11-08T17:07:14.814Z,72.50
2023-11-08T17:09:42.691Z,72.60
2023-11-08T17:12:10.202Z,73.00
2023-11-08T17:14:37.725Z,73.20
2023-11-08T17:17:05.312Z,73.70
2023-11-08T17:19:33.059Z,73.70
2023-11-08T17:22:01.126Z,74.10
2023-11-08T17:24:28.598Z,74.40
2023-11-08T17:26:56.026Z,74.80
2023-11-08T17:29:23.465Z,75.30
2023-11-08T17:31:52.131Z,75.60
2023-11-08T17:34:20.402Z,75.90
2023-11-08T17:36:48.746Z,76.00
2023-11-08T17:39:16.262Z,76.30
2023-11-08T17:41:43.522Z,76.60
2023-11-08T17:44:11.717Z,76.80
2023-11-08T17:46:39.010Z,77.00
2023-11-08T17:49:06.404Z,77.40
2023-11-08T17:51:33.824Z,78.10
2023-11-08T17:54:02.238Z,78.80
2023-11-08T17:56:29.719Z,79.40
2023-11-08T17:58:57.052Z,79.80
2023-11-08T18:01:24.493Z,80.20
2023-11-08T18:03:51.884Z,80.50
2023-11-08T18:06:19.846Z,81.30
2023-11-08T18:08:47.134Z,80.70
2023-11-08T18:11:15.305Z,81.00
2023-11-08T18:13:47.913Z,82.20
2023-11-08T18:16:15.743Z,82.50
2023-11-08T18:18:45.250Z,82.40
2023-11-08T18:21:13.930Z,82.40
2023-11-08T18:23:42.840Z,82.50
2023-11-08T18:26:10.320Z,82.70
2023-11-08T18:28:37.604Z,82.70
2023-11-08T18:31:05.053Z,82.60
2023-11-08T18:33:32.482Z,82.60
2023-11-08T18:35:59.956Z,83.10
2023-11-08T18:38:30.092Z,83.20
2023-11-08T18:40:58.957Z,83.60
2023-11-08T18:43:27.383Z,83.90
2023-11-08T18:45:56.077Z,84.10
2023-11-08T18:48:27.516Z,84.20
2023-11-08T18:50:56.269Z,84.20
2023-11-08T18:53:25.159Z,84.20
2023-11-08T18:55:52.780Z,84.30
2023-11-08T18:58:24.374Z,84.30
2023-11-08T19:00:54.090Z,84.30
2023-11-08T19:03:21.770Z,84.30
2023-11-08T19:05:50.223Z,84.40
2023-11-08T19:08:17.984Z,84.50
2023-11-08T19:10:45.742Z,84.70
2023-11-08T19:13:13.978Z,85.10
2023-11-08T19:15:42.001Z,85.20
2023-11-08T19:18:09.746Z,85.40
2023-11-08T19:20:37.457Z,85.40
2023-11-08T19:23:12.450Z,85.30
2023-11-08T19:25:47.977Z,85.30
2023-11-08T19:28:15.274Z,85.40
2023-11-08T19:30:43.576Z,85.40
2023-11-08T19:33:10.941Z,85.40
2023-11-08T19:35:43.009Z,85.30
2023-11-08T19:38:10.529Z,85.50
2023-11-08T19:40:38.347Z,85.50
2023-11-08T19:43:08.800Z,85.70
2023-11-08T19:45:36.125Z,85.90
2023-11-08T19:48:03.798Z,86.10
2023-11-08T19:50:32.463Z,86.10
2023-11-08T19:52:59.993Z,86.20
2023-11-08T19:55:27.707Z,86.30
2023-11-08T19:57:55.707Z,86.30
2023-11-08T20:00:23.210Z,86.40
2023-11-08T20:02:52.799Z,86.60
2023-11-08T20:05:20.575Z,87.10
2023-11-08T20:07:50.173Z,87.30
2023-11-08T20:10:18.746Z,87.80
2023-11-08T20:12:49.119Z,87.90
2023-11-08T20:15:16.952Z,88.00
2023-11-08T20:17:44.894Z,88.20
2023-11-08T20:20:13.095Z,88.50
2023-11-08T20:22:41.317Z,88.60
2023-11-08T20:25:10.460Z,88.60
2023-11-08T20:27:38.679Z,88.70
2023-11-08T20:30:08.376Z,88.60
2023-11-08T20:32:38.760Z,88.80
2023-11-08T20:35:06.802Z,89.30
2023-11-08T20:37:35.246Z,88.90
2023-11-08T20:40:03.198Z,88.80
2023-11-08T20:42:31.154Z,88.90
2023-11-08T20:44:58.449Z,89.00
2023-11-08T20:47:25.893Z,89.10
2023-11-08T20:49:55.241Z,89.00
2023-11-08T20:52:28.146Z,89.00
2023-11-08T20:54:55.908Z,89.00
2023-11-08T20:57:23.655Z,89.00
2023-11-08T20:59:51.826Z,89.10
2023-11-08T21:02:19.661Z,89.10
2023-11-08T21:04:47.013Z,89.00
2023-11-08T21:07:14.661Z,89.10
2023-11-08T21:09:42.419Z,89.10
2023-11-08T21:12:11.257Z,89.10
2023-11-08T21:14:38.802Z,88.90
2023-11-08T21:17:07.125Z,89.00
2023-11-08T21:19:34.843Z,89.00
2023-11-08T21:22:02.586Z,89.00
2023-11-08T21:24:29.925Z,88.90
2023-11-08T21:26:57.403Z,89.00
2023-11-08T21:29:24.684Z,89.00
2023-11-08T21:31:52.272Z,89.10
2023-11-08T21:34:20.232Z,89.10
2023-11-08T21:36:47.734Z,89.20
2023-11-08T21:39:15.518Z,89.30
2023-11-08T21:41:46.781Z,89.40
2023-11-08T21:44:14.532Z,89.40
2023-11-08T21:46:44.997Z,89.40
2023-11-08T21:49:13.280Z,89.20
2023-11-08T21:51:40.698Z,89.20
2023-11-08T21:54:09.728Z,89.30
2023-11-08T21:56:37.058Z,89.40
2023-11-08T21:59:04.510Z,89.40
2023-11-08T22:01:32.126Z,89.50
2023-11-08T22:03:59.527Z,89.80
2023-11-08T22:06:26.902Z,89.90
2023-11-08T22:08:56.328Z,90.00
2023-11-08T22:11:26.369Z,90.00
2023-11-08T22:13:53.764Z,90.00
2023-11-08T22:16:21.126Z,90.00
2023-11-08T22:18:48.609Z,90.00
2023-11-08T22:21:16.418Z,90.10
2023-11-08T22:23:43.782Z,90.10
2023-11-08T22:26:23.155Z,90.10
2023-11-08T22:28:52.513Z,90.00
2023-11-08T22:31:22.490Z,90.00
2023-11-08T22:33:49.853Z,90.10
2023-11-08T22:36:17.725Z,90.10
2023-11-08T22:38:45.152Z,90.20
2023-11-08T22:41:13.033Z,90.20
2023-11-08T22:43:40.803Z,90.30
2023-11-08T22:46:08.640Z,90.20
2023-11-08T22:48:37.240Z,90.20
2023-11-08T22:51:04.931Z,90.30
2023-11-08T22:53:33.090Z,90.30
2023-11-08T22:56:00.422Z,90.30
2023-11-08T22:58:28.147Z,90.30
2023-11-08T23:00:56.390Z,90.30
2023-11-08T23:03:24.254Z,90.30
2023-11-08T23:05:54.606Z,90.40
2023-11-08T23:08:22.545Z,90.50
2023-11-08T23:10:50.061Z,90.50
2023-11-08T23:13:18.132Z,90.80
2023-11-08T23:15:46.129Z,90.60
2023-11-08T23:18:16.197Z,90.60
2023-11-08T23:20:43.606Z,90.70
2023-11-08T23:23:12.987Z,90.80
2023-11-08T23:25:42.362Z,90.90
2023-11-08T23:28:09.873Z,90.90
2023-11-08T23:30:37.354Z,90.90
2023-11-08T23:33:05.197Z,90.90
2023-11-08T23:35:32.644Z,91.00
2023-11-08T23:38:01.813Z,90.90
2023-11-08T23:40:29.107Z,91.00
2023-11-08T23:42:56.599Z,90.90
2023-11-08T23:45:23.945Z,90.90
2023-11-08T23:47:51.630Z,90.90
2023-11-08T23:50:19.097Z,90.90
2023-11-08T23:52:47.031Z,90.90
2023-11-08T23:55:14.908Z,90.80
2023-11-08T23:57:42.488Z,90.90
